sensor_id;sensor_type;location;lat;lon;timestamp;P1;durP1;ratioP1;P2;durP2;ratioP2
47599;SDS011;33323;52.124;6.018;2022-11-20T00:01:30;13.30;;;6.68;;
47599;SDS011;33323;52.124;6.018;2022-11-20T00:03:58;14.43;;;6.72;;
47599;SDS011;33323;52.124;6.018;2022-11-20T00:06:26;11.45;;;6.90;;
47599;SDS011;33323;52.124;6.018;2022-11-20T00:08:58;10.55;;;5.95;;
47599;SDS011;33323;52.124;6.018;2022-11-20T00:11:28;12.27;;;8.00;;
47599;SDS011;33323;52.124;6.018;2022-11-20T00:13:57;13.45;;;7.43;;
47599;SDS011;33323;52.124;6.018;2022-11-20T00:16:27;11.85;;;6.00;;
47599;SDS011;33323;52.124;6.018;2022-11-20T00:18:56;10.55;;;7.25;;
47599;SDS011;33323;52.124;6.018;2022-11-20T00:21:25;15.73;;;7.28;;
47599;SDS011;33323;52.124;6.018;2022-11-20T00:23:54;15.85;;;7.65;;
47599;SDS011;33323;52.124;6.018;2022-11-20T00:26:24;11.18;;;5.57;;
47599;SDS011;33323;52.124;6.018;2022-11-20T00:28:56;13.18;;;6.85;;
47599;SDS011;33323;52.124;6.018;2022-11-20T00:31:25;13.63;;;7.50;;
47599;SDS011;33323;52.124;6.018;2022-11-20T00:33:53;12.60;;;6.80;;
47599;SDS011;33323;52.124;6.018;2022-11-20T00:36:22;14.90;;;6.68;;
47599;SDS011;33323;52.124;6.018;2022-11-20T00:38:53;11.45;;;6.18;;
47599;SDS011;33323;52.124;6.018;2022-11-20T00:41:22;12.80;;;7.20;;
47599;SDS011;33323;52.124;6.018;2022-11-20T00:43:51;13.57;;;6.28;;
47599;SDS011;33323;52.124;6.018;2022-11-20T00:46:20;12.63;;;7.00;;
47599;SDS011;33323;52.124;6.018;2022-11-20T00:48:49;11.85;;;6.25;;
47599;SDS011;33323;52.124;6.018;2022-11-20T00:51:17;11.00;;;6.22;;
47599;SDS011;33323;52.124;6.018;2022-11-20T00:53:47;14.18;;;7.65;;
47599;SDS011;33323;52.124;6.018;2022-11-20T00:56:15;11.80;;;6.47;;
47599;SDS011;33323;52.124;6.018;2022-11-20T00:58:45;12.57;;;5.97;;
47599;SDS011;33323;52.124;6.018;2022-11-20T01:01:14;11.65;;;6.65;;
47599;SDS011;33323;52.124;6.018;2022-11-20T01:03:45;13.77;;;7.15;;
47599;SDS011;33323;52.124;6.018;2022-11-20T01:08:44;12.68;;;6.85;;
47599;SDS011;33323;52.124;6.018;2022-11-20T01:11:13;16.27;;;8.35;;
47599;SDS011;33323;52.124;6.018;2022-11-20T01:13:50;13.45;;;7.75;;
47599;SDS011;33323;52.124;6.018;2022-11-20T01:16:19;12.65;;;6.38;;
47599;SDS011;33323;52.124;6.018;2022-11-20T01:18:53;9.63;;;6.05;;
47599;SDS011;33323;52.124;6.018;2022-11-20T01:21:25;12.60;;;6.45;;
47599;SDS011;33323;52.124;6.018;2022-11-20T01:23:54;9.75;;;6.47;;
47599;SDS011;33323;52.124;6.018;2022-11-20T01:26:23;11.63;;;6.53;;
47599;SDS011;33323;52.124;6.018;2022-11-20T01:28:55;11.75;;;6.20;;
47599;SDS011;33323;52.124;6.018;2022-11-20T01:31:26;12.65;;;6.10;;
47599;SDS011;33323;52.124;6.018;2022-11-20T01:33:56;12.93;;;5.85;;
47599;SDS011;33323;52.124;6.018;2022-11-20T01:36:27;14.77;;;6.35;;
47599;SDS011;33323;52.124;6.018;2022-11-20T01:38:57;12.35;;;5.90;;
47599;SDS011;33323;52.124;6.018;2022-11-20T01:41:28;12.27;;;6.97;;
47599;SDS011;33323;52.124;6.018;2022-11-20T01:44:16;14.73;;;7.03;;
47599;SDS011;33323;52.124;6.018;2022-11-20T01:46:52;9.57;;;6.75;;
47599;SDS011;33323;52.124;6.018;2022-11-20T01:49:35;11.50;;;5.25;;
47599;SDS011;33323;52.124;6.018;2022-11-20T01:52:24;13.43;;;6.30;;
47599;SDS011;33323;52.124;6.018;2022-11-20T01:55:01;12.20;;;6.10;;
47599;SDS011;33323;52.124;6.018;2022-11-20T01:57:34;11.90;;;7.18;;
47599;SDS011;33323;52.124;6.018;2022-11-20T02:00:05;12.35;;;6.35;;
47599;SDS011;33323;52.124;6.018;2022-11-20T02:02:39;11.30;;;6.10;;
47599;SDS011;33323;52.124;6.018;2022-11-20T02:07:54;16.35;;;7.20;;
47599;SDS011;33323;52.124;6.018;2022-11-20T02:10:23;14.18;;;7.53;;
47599;SDS011;33323;52.124;6.018;2022-11-20T02:12:51;12.48;;;6.20;;
47599;SDS011;33323;52.124;6.018;2022-11-20T02:15:36;10.48;;;6.00;;
47599;SDS011;33323;52.124;6.018;2022-11-20T02:18:04;10.43;;;5.90;;
47599;SDS011;33323;52.124;6.018;2022-11-20T02:20:32;13.40;;;6.13;;
47599;SDS011;33323;52.124;6.018;2022-11-20T02:23:01;12.18;;;6.13;;
47599;SDS011;33323;52.124;6.018;2022-11-20T02:25:38;12.18;;;7.05;;
47599;SDS011;33323;52.124;6.018;2022-11-20T02:28:07;12.73;;;6.18;;
47599;SDS011;33323;52.124;6.018;2022-11-20T02:30:34;13.95;;;6.90;;
47599;SDS011;33323;52.124;6.018;2022-11-20T02:33:01;12.00;;;6.50;;
47599;SDS011;33323;52.124;6.018;2022-11-20T02:37:56;12.73;;;7.00;;
47599;SDS011;33323;52.124;6.018;2022-11-20T02:40:25;13.65;;;7.47;;
47599;SDS011;33323;52.124;6.018;2022-11-20T02:42:53;11.88;;;6.28;;
47599;SDS011;33323;52.124;6.018;2022-11-20T02:45:22;11.93;;;6.13;;
47599;SDS011;33323;52.124;6.018;2022-11-20T02:47:50;13.00;;;6.65;;
47599;SDS011;33323;52.124;6.018;2022-11-20T02:50:17;13.23;;;5.88;;
47599;SDS011;33323;52.124;6.018;2022-11-20T02:52:44;13.57;;;6.43;;
47599;SDS011;33323;52.124;6.018;2022-11-20T02:55:12;12.15;;;6.45;;
47599;SDS011;33323;52.124;6.018;2022-11-20T02:57:39;14.48;;;7.28;;
47599;SDS011;33323;52.124;6.018;2022-11-20T03:00:06;12.75;;;6.63;;
47599;SDS011;33323;52.124;6.018;2022-11-20T03:02:34;11.50;;;6.65;;
47599;SDS011;33323;52.124;6.018;2022-11-20T03:05:01;12.35;;;6.22;;
47599;SDS011;33323;52.124;6.018;2022-11-20T03:07:28;16.17;;;6.22;;
47599;SDS011;33323;52.124;6.018;2022-11-20T03:09:55;11.75;;;6.15;;
47599;SDS011;33323;52.124;6.018;2022-11-20T03:12:22;14.50;;;6.78;;
47599;SDS011;33323;52.124;6.018;2022-11-20T03:14:49;11.00;;;5.88;;
47599;SDS011;33323;52.124;6.018;2022-11-20T03:17:18;13.40;;;6.35;;
47599;SDS011;33323;52.124;6.018;2022-11-20T03:19:45;11.77;;;6.38;;
47599;SDS011;33323;52.124;6.018;2022-11-20T03:22:12;12.52;;;6.90;;
47599;SDS011;33323;52.124;6.018;2022-11-20T03:24:39;13.32;;;6.90;;
47599;SDS011;33323;52.124;6.018;2022-11-20T03:27:06;9.35;;;5.40;;
47599;SDS011;33323;52.124;6.018;2022-11-20T03:29:34;13.70;;;6.20;;
47599;SDS011;33323;52.124;6.018;2022-11-20T03:32:01;13.43;;;7.38;;
47599;SDS011;33323;52.124;6.018;2022-11-20T03:34:29;8.93;;;5.18;;
47599;SDS011;33323;52.124;6.018;2022-11-20T03:36:55;12.02;;;6.93;;
47599;SDS011;33323;52.124;6.018;2022-11-20T03:39:22;11.55;;;6.20;;
47599;SDS011;33323;52.124;6.018;2022-11-20T03:41:50;13.25;;;7.10;;
47599;SDS011;33323;52.124;6.018;2022-11-20T03:44:17;14.18;;;7.07;;
47599;SDS011;33323;52.124;6.018;2022-11-20T03:46:47;10.23;;;6.20;;
47599;SDS011;33323;52.124;6.018;2022-11-20T03:49:14;14.65;;;6.93;;
47599;SDS011;33323;52.124;6.018;2022-11-20T03:51:41;12.32;;;6.47;;
47599;SDS011;33323;52.124;6.018;2022-11-20T03:54:08;12.30;;;6.65;;
47599;SDS011;33323;52.124;6.018;2022-11-20T03:56:37;20.77;;;6.95;;
47599;SDS011;33323;52.124;6.018;2022-11-20T03:59:04;9.95;;;5.97;;
47599;SDS011;33323;52.124;6.018;2022-11-20T04:01:36;14.80;;;6.53;;
47599;SDS011;33323;52.124;6.018;2022-11-20T04:04:12;14.10;;;6.20;;
47599;SDS011;33323;52.124;6.018;2022-11-20T04:06:39;9.88;;;6.03;;
47599;SDS011;33323;52.124;6.018;2022-11-20T04:09:06;13.18;;;7.28;;
47599;SDS011;33323;52.124;6.018;2022-11-20T04:11:36;12.48;;;6.72;;
47599;SDS011;33323;52.124;6.018;2022-11-20T04:14:06;11.63;;;6.93;;
47599;SDS011;33323;52.124;6.018;2022-11-20T04:16:40;13.07;;;6.07;;
47599;SDS011;33323;52.124;6.018;2022-11-20T04:19:13;12.18;;;7.40;;
47599;SDS011;33323;52.124;6.018;2022-11-20T04:21:50;12.00;;;6.15;;
47599;SDS011;33323;52.124;6.018;2022-11-20T04:24:23;11.88;;;6.93;;
47599;SDS011;33323;52.124;6.018;2022-11-20T04:27:03;14.98;;;6.45;;
47599;SDS011;33323;52.124;6.018;2022-11-20T04:29:47;17.33;;;6.80;;
47599;SDS011;33323;52.124;6.018;2022-11-20T04:32:48;13.25;;;6.18;;
47599;SDS011;33323;52.124;6.018;2022-11-20T04:39:20;12.38;;;6.70;;
47599;SDS011;33323;52.124;6.018;2022-11-20T04:43:21;10.10;;;5.88;;
47599;SDS011;33323;52.124;6.018;2022-11-20T04:46:17;13.02;;;5.93;;
47599;SDS011;33323;52.124;6.018;2022-11-20T04:49:20;10.52;;;5.70;;
47599;SDS011;33323;52.124;6.018;2022-11-20T04:52:04;12.27;;;6.55;;
47599;SDS011;33323;52.124;6.018;2022-11-20T04:55:06;15.02;;;6.50;;
47599;SDS011;33323;52.124;6.018;2022-11-20T04:58:49;12.82;;;7.35;;
47599;SDS011;33323;52.124;6.018;2022-11-20T05:02:47;15.30;;;7.25;;
47599;SDS011;33323;52.124;6.018;2022-11-20T05:06:22;12.15;;;7.32;;
47599;SDS011;33323;52.124;6.018;2022-11-20T05:09:15;13.07;;;5.80;;
47599;SDS011;33323;52.124;6.018;2022-11-20T05:12:10;12.68;;;6.88;;
47599;SDS011;33323;52.124;6.018;2022-11-20T05:18:16;12.10;;;6.43;;
47599;SDS011;33323;52.124;6.018;2022-11-20T05:21:09;9.77;;;5.78;;
47599;SDS011;33323;52.124;6.018;2022-11-20T05:24:48;12.30;;;7.10;;
47599;SDS011;33323;52.124;6.018;2022-11-20T05:33:22;19.13;;;8.85;;
47599;SDS011;33323;52.124;6.018;2022-11-20T05:36:21;20.33;;;9.55;;
47599;SDS011;33323;52.124;6.018;2022-11-20T05:38:48;18.50;;;9.52;;
47599;SDS011;33323;52.124;6.018;2022-11-20T05:41:18;15.45;;;8.57;;
47599;SDS011;33323;52.124;6.018;2022-11-20T05:43:47;23.27;;;9.18;;
47599;SDS011;33323;52.124;6.018;2022-11-20T05:46:17;19.55;;;8.98;;
47599;SDS011;33323;52.124;6.018;2022-11-20T05:48:59;16.50;;;7.95;;
47599;SDS011;33323;52.124;6.018;2022-11-20T05:51:26;20.77;;;8.35;;
47599;SDS011;33323;52.124;6.018;2022-11-20T05:53:55;19.80;;;8.32;;
47599;SDS011;33323;52.124;6.018;2022-11-20T05:56:23;16.75;;;6.93;;
47599;SDS011;33323;52.124;6.018;2022-11-20T05:58:51;13.07;;;7.07;;
47599;SDS011;33323;52.124;6.018;2022-11-20T06:01:24;13.85;;;7.30;;
47599;SDS011;33323;52.124;6.018;2022-11-20T06:03:56;13.73;;;7.28;;
47599;SDS011;33323;52.124;6.018;2022-11-20T06:12:22;13.20;;;7.68;;
47599;SDS011;33323;52.124;6.018;2022-11-20T06:30:46;14.20;;;7.07;;
47599;SDS011;33323;52.124;6.018;2022-11-20T06:33:13;14.60;;;7.38;;
47599;SDS011;33323;52.124;6.018;2022-11-20T06:35:40;13.65;;;7.05;;
47599;SDS011;33323;52.124;6.018;2022-11-20T06:38:07;13.40;;;7.03;;
47599;SDS011;33323;52.124;6.018;2022-11-20T06:40:34;15.30;;;7.60;;
47599;SDS011;33323;52.124;6.018;2022-11-20T06:43:01;11.82;;;5.85;;
47599;SDS011;33323;52.124;6.018;2022-11-20T06:45:28;11.85;;;6.18;;
47599;SDS011;33323;52.124;6.018;2022-11-20T06:47:56;13.63;;;6.82;;
47599;SDS011;33323;52.124;6.018;2022-11-20T06:53:21;13.27;;;7.10;;
47599;SDS011;33323;52.124;6.018;2022-11-20T06:55:49;11.60;;;6.47;;
47599;SDS011;33323;52.124;6.018;2022-11-20T06:58:17;14.10;;;6.75;;
47599;SDS011;33323;52.124;6.018;2022-11-20T07:00:44;12.40;;;6.70;;
47599;SDS011;33323;52.124;6.018;2022-11-20T07:03:13;14.27;;;6.95;;
47599;SDS011;33323;52.124;6.018;2022-11-20T07:05:40;10.65;;;6.63;;
47599;SDS011;33323;52.124;6.018;2022-11-20T07:08:07;16.48;;;6.47;;
47599;SDS011;33323;52.124;6.018;2022-11-20T07:10:36;13.15;;;6.53;;
47599;SDS011;33323;52.124;6.018;2022-11-20T07:13:06;12.43;;;7.43;;
47599;SDS011;33323;52.124;6.018;2022-11-20T07:15:34;14.10;;;6.80;;
47599;SDS011;33323;52.124;6.018;2022-11-20T07:18:01;13.98;;;7.07;;
47599;SDS011;33323;52.124;6.018;2022-11-20T07:20:35;17.05;;;7.68;;
47599;SDS011;33323;52.124;6.018;2022-11-20T07:25:52;13.75;;;6.15;;
47599;SDS011;33323;52.124;6.018;2022-11-20T07:28:19;12.35;;;6.07;;
47599;SDS011;33323;52.124;6.018;2022-11-20T07:30:51;13.95;;;7.28;;
47599;SDS011;33323;52.124;6.018;2022-11-20T07:33:19;12.43;;;6.90;;
47599;SDS011;33323;52.124;6.018;2022-11-20T07:35:53;14.73;;;6.72;;
47599;SDS011;33323;52.124;6.018;2022-11-20T07:38:24;12.18;;;6.55;;
47599;SDS011;33323;52.124;6.018;2022-11-20T07:40:57;11.40;;;6.47;;
47599;SDS011;33323;52.124;6.018;2022-11-20T07:43:25;14.55;;;7.45;;
47599;SDS011;33323;52.124;6.018;2022-11-20T07:45:56;14.13;;;7.82;;
47599;SDS011;33323;52.124;6.018;2022-11-20T07:48:28;15.80;;;7.05;;
47599;SDS011;33323;52.124;6.018;2022-11-20T07:50:57;15.88;;;7.78;;
47599;SDS011;33323;52.124;6.018;2022-11-20T07:53:24;13.43;;;7.53;;
47599;SDS011;33323;52.124;6.018;2022-11-20T07:55:52;14.38;;;8.43;;
47599;SDS011;33323;52.124;6.018;2022-11-20T07:58:20;21.20;;;10.25;;
47599;SDS011;33323;52.124;6.018;2022-11-20T08:00:47;16.98;;;9.32;;
47599;SDS011;33323;52.124;6.018;2022-11-20T08:03:14;18.27;;;10.10;;
47599;SDS011;33323;52.124;6.018;2022-11-20T08:05:49;16.43;;;9.53;;
47599;SDS011;33323;52.124;6.018;2022-11-20T08:11:21;17.73;;;9.32;;
47599;SDS011;33323;52.124;6.018;2022-11-20T08:14:07;17.63;;;9.75;;
47599;SDS011;33323;52.124;6.018;2022-11-20T08:16:44;15.15;;;9.23;;
47599;SDS011;33323;52.124;6.018;2022-11-20T08:19:23;14.70;;;8.20;;
47599;SDS011;33323;52.124;6.018;2022-11-20T08:21:51;15.13;;;8.98;;
47599;SDS011;33323;52.124;6.018;2022-11-20T08:24:18;18.38;;;10.73;;
47599;SDS011;33323;52.124;6.018;2022-11-20T08:26:45;21.90;;;11.57;;
47599;SDS011;33323;52.124;6.018;2022-11-20T08:29:13;18.70;;;10.27;;
47599;SDS011;33323;52.124;6.018;2022-11-20T08:31:41;14.23;;;9.27;;
47599;SDS011;33323;52.124;6.018;2022-11-20T08:34:08;17.42;;;9.50;;
47599;SDS011;33323;52.124;6.018;2022-11-20T08:36:38;14.73;;;10.15;;
47599;SDS011;33323;52.124;6.018;2022-11-20T08:39:05;17.85;;;10.60;;
47599;SDS011;33323;52.124;6.018;2022-11-20T08:44:24;25.77;;;10.95;;
47599;SDS011;33323;52.124;6.018;2022-11-20T08:46:54;18.67;;;10.07;;
47599;SDS011;33323;52.124;6.018;2022-11-20T08:49:21;19.10;;;11.23;;
47599;SDS011;33323;52.124;6.018;2022-11-20T08:51:49;16.00;;;9.25;;
47599;SDS011;33323;52.124;6.018;2022-11-20T08:54:19;15.77;;;9.13;;
47599;SDS011;33323;52.124;6.018;2022-11-20T08:59:48;19.02;;;12.07;;
47599;SDS011;33323;52.124;6.018;2022-11-20T09:06:43;18.35;;;11.05;;
47599;SDS011;33323;52.124;6.018;2022-11-20T09:09:32;19.77;;;10.68;;
47599;SDS011;33323;52.124;6.018;2022-11-20T09:11:59;17.45;;;10.73;;
47599;SDS011;33323;52.124;6.018;2022-11-20T09:14:26;22.13;;;12.00;;
47599;SDS011;33323;52.124;6.018;2022-11-20T09:16:56;20.05;;;12.32;;
47599;SDS011;33323;52.124;6.018;2022-11-20T09:19:23;22.95;;;12.15;;
47599;SDS011;33323;52.124;6.018;2022-11-20T09:22:01;20.50;;;11.50;;
47599;SDS011;33323;52.124;6.018;2022-11-20T09:24:28;21.98;;;13.27;;
47599;SDS011;33323;52.124;6.018;2022-11-20T09:26:56;17.90;;;11.77;;
47599;SDS011;33323;52.124;6.018;2022-11-20T09:29:23;24.73;;;12.23;;
47599;SDS011;33323;52.124;6.018;2022-11-20T09:31:49;24.58;;;13.85;;
47599;SDS011;33323;52.124;6.018;2022-11-20T09:34:17;26.67;;;14.25;;
47599;SDS011;33323;52.124;6.018;2022-11-20T09:36:44;22.38;;;13.02;;
47599;SDS011;33323;52.124;6.018;2022-11-20T09:39:11;22.40;;;12.95;;
47599;SDS011;33323;52.124;6.018;2022-11-20T09:41:52;28.23;;;15.32;;
47599;SDS011;33323;52.124;6.018;2022-11-20T09:47:41;25.75;;;15.60;;
47599;SDS011;33323;52.124;6.018;2022-11-20T09:55:39;25.83;;;14.90;;
47599;SDS011;33323;52.124;6.018;2022-11-20T09:58:12;28.50;;;15.38;;
47599;SDS011;33323;52.124;6.018;2022-11-20T10:01:19;26.85;;;15.07;;
47599;SDS011;33323;52.124;6.018;2022-11-20T10:03:56;27.05;;;15.23;;
47599;SDS011;33323;52.124;6.018;2022-11-20T10:06:32;23.83;;;14.13;;
47599;SDS011;33323;52.124;6.018;2022-11-20T10:09:37;25.48;;;13.85;;
47599;SDS011;33323;52.124;6.018;2022-11-20T10:12:27;28.65;;;13.52;;
47599;SDS011;33323;52.124;6.018;2022-11-20T10:23:45;22.92;;;13.18;;
47599;SDS011;33323;52.124;6.018;2022-11-20T10:26:44;30.63;;;16.20;;
47599;SDS011;33323;52.124;6.018;2022-11-20T10:29:45;26.70;;;14.95;;
47599;SDS011;33323;52.124;6.018;2022-11-20T10:32:30;28.02;;;13.95;;
47599;SDS011;33323;52.124;6.018;2022-11-20T10:38:02;30.45;;;15.52;;
47599;SDS011;33323;52.124;6.018;2022-11-20T10:40:41;31.35;;;14.82;;
47599;SDS011;33323;52.124;6.018;2022-11-20T10:43:13;30.38;;;16.08;;
47599;SDS011;33323;52.124;6.018;2022-11-20T10:45:47;31.88;;;14.50;;
47599;SDS011;33323;52.124;6.018;2022-11-20T10:48:22;29.30;;;14.63;;
47599;SDS011;33323;52.124;6.018;2022-11-20T10:53:38;30.67;;;14.77;;
47599;SDS011;33323;52.124;6.018;2022-11-20T10:56:45;30.38;;;15.25;;
47599;SDS011;33323;52.124;6.018;2022-11-20T11:02:15;27.92;;;13.45;;
47599;SDS011;33323;52.124;6.018;2022-11-20T11:05:10;27.48;;;14.30;;
47599;SDS011;33323;52.124;6.018;2022-11-20T11:07:40;30.90;;;17.23;;
47599;SDS011;33323;52.124;6.018;2022-11-20T11:10:14;29.38;;;15.35;;
47599;SDS011;33323;52.124;6.018;2022-11-20T11:12:49;30.45;;;15.65;;
47599;SDS011;33323;52.124;6.018;2022-11-20T11:15:35;26.77;;;14.30;;
47599;SDS011;33323;52.124;6.018;2022-11-20T11:18:07;25.70;;;13.10;;
47599;SDS011;33323;52.124;6.018;2022-11-20T11:20:36;30.17;;;15.40;;
47599;SDS011;33323;52.124;6.018;2022-11-20T11:23:04;28.52;;;14.02;;
47599;SDS011;33323;52.124;6.018;2022-11-20T11:25:34;27.48;;;14.80;;
47599;SDS011;33323;52.124;6.018;2022-11-20T11:28:19;28.67;;;14.75;;
47599;SDS011;33323;52.124;6.018;2022-11-20T11:30:53;28.02;;;15.50;;
47599;SDS011;33323;52.124;6.018;2022-11-20T11:33:23;30.92;;;15.45;;
47599;SDS011;33323;52.124;6.018;2022-11-20T11:35:53;26.88;;;13.40;;
47599;SDS011;33323;52.124;6.018;2022-11-20T11:41:09;27.63;;;14.82;;
47599;SDS011;33323;52.124;6.018;2022-11-20T11:43:49;27.23;;;15.05;;
47599;SDS011;33323;52.124;6.018;2022-11-20T11:46:49;23.23;;;13.52;;
47599;SDS011;33323;52.124;6.018;2022-11-20T11:49:20;26.50;;;13.82;;
47599;SDS011;33323;52.124;6.018;2022-11-20T11:57:24;20.95;;;11.10;;
47599;SDS011;33323;52.124;6.018;2022-11-20T11:59:59;18.02;;;8.50;;
47599;SDS011;33323;52.124;6.018;2022-11-20T12:11:03;25.23;;;14.77;;
47599;SDS011;33323;52.124;6.018;2022-11-20T12:16:20;29.35;;;13.95;;
47599;SDS011;33323;52.124;6.018;2022-11-20T12:18:49;29.60;;;16.00;;
47599;SDS011;33323;52.124;6.018;2022-11-20T12:21:19;24.98;;;14.23;;
47599;SDS011;33323;52.124;6.018;2022-11-20T12:26:52;20.88;;;11.75;;
47599;SDS011;33323;52.124;6.018;2022-11-20T12:29:50;21.23;;;12.27;;
47599;SDS011;33323;52.124;6.018;2022-11-20T12:47:24;32.35;;;15.98;;
47599;SDS011;33323;52.124;6.018;2022-11-20T12:50:22;26.02;;;14.68;;
47599;SDS011;33323;52.124;6.018;2022-11-20T12:53:04;31.05;;;16.95;;
47599;SDS011;33323;52.124;6.018;2022-11-20T15:29:56;40.17;;;22.17;;
47599;SDS011;33323;52.124;6.018;2022-11-20T15:32:23;40.03;;;22.67;;
47599;SDS011;33323;52.124;6.018;2022-11-20T15:49:02;46.72;;;22.95;;
47599;SDS011;33323;52.124;6.018;2022-11-20T16:14:15;43.50;;;22.48;;
47599;SDS011;33323;52.124;6.018;2022-11-20T16:17:02;46.80;;;22.15;;
47599;SDS011;33323;52.124;6.018;2022-11-20T16:22:17;43.75;;;22.52;;
47599;SDS011;33323;52.124;6.018;2022-11-20T16:24:51;35.92;;;20.00;;
47599;SDS011;33323;52.124;6.018;2022-11-20T16:27:28;37.13;;;19.35;;
47599;SDS011;33323;52.124;6.018;2022-11-20T16:29:55;44.70;;;22.08;;
47599;SDS011;33323;52.124;6.018;2022-11-20T16:32:22;44.80;;;22.98;;
47599;SDS011;33323;52.124;6.018;2022-11-20T16:34:49;48.15;;;23.67;;
47599;SDS011;33323;52.124;6.018;2022-11-20T16:37:16;41.17;;;17.50;;
47599;SDS011;33323;52.124;6.018;2022-11-20T16:39:43;51.17;;;25.77;;
47599;SDS011;33323;52.124;6.018;2022-11-20T16:42:09;46.90;;;24.42;;
47599;SDS011;33323;52.124;6.018;2022-11-20T16:44:36;50.00;;;24.42;;
47599;SDS011;33323;52.124;6.018;2022-11-20T16:47:04;47.28;;;22.30;;
47599;SDS011;33323;52.124;6.018;2022-11-20T16:49:31;47.63;;;24.73;;
47599;SDS011;33323;52.124;6.018;2022-11-20T16:51:58;51.83;;;27.75;;
47599;SDS011;33323;52.124;6.018;2022-11-20T16:54:25;51.28;;;25.00;;
47599;SDS011;33323;52.124;6.018;2022-11-20T16:56:53;53.60;;;26.73;;
47599;SDS011;33323;52.124;6.018;2022-11-20T16:59:20;49.72;;;23.70;;
47599;SDS011;33323;52.124;6.018;2022-11-20T17:01:47;48.45;;;25.67;;
47599;SDS011;33323;52.124;6.018;2022-11-20T17:04:14;51.70;;;25.33;;
47599;SDS011;33323;52.124;6.018;2022-11-20T17:06:42;48.83;;;24.00;;
47599;SDS011;33323;52.124;6.018;2022-11-20T17:09:10;51.85;;;23.58;;
47599;SDS011;33323;52.124;6.018;2022-11-20T17:11:38;50.13;;;25.50;;
47599;SDS011;33323;52.124;6.018;2022-11-20T17:14:05;52.22;;;26.58;;
47599;SDS011;33323;52.124;6.018;2022-11-20T17:16:33;52.90;;;26.27;;
47599;SDS011;33323;52.124;6.018;2022-11-20T17:19:07;49.25;;;26.08;;
47599;SDS011;33323;52.124;6.018;2022-11-20T17:21:37;53.97;;;26.27;;
47599;SDS011;33323;52.124;6.018;2022-11-20T17:24:11;48.60;;;25.20;;
47599;SDS011;33323;52.124;6.018;2022-11-20T17:26:40;53.08;;;24.55;;
47599;SDS011;33323;52.124;6.018;2022-11-20T17:29:12;55.45;;;25.38;;
47599;SDS011;33323;52.124;6.018;2022-11-20T17:31:44;59.30;;;27.00;;
47599;SDS011;33323;52.124;6.018;2022-11-20T17:34:12;52.75;;;23.02;;
47599;SDS011;33323;52.124;6.018;2022-11-20T17:36:40;49.63;;;24.15;;
47599;SDS011;33323;52.124;6.018;2022-11-20T17:39:12;56.83;;;26.75;;
47599;SDS011;33323;52.124;6.018;2022-11-20T17:41:40;54.67;;;24.38;;
47599;SDS011;33323;52.124;6.018;2022-11-20T17:44:08;51.83;;;24.60;;
47599;SDS011;33323;52.124;6.018;2022-11-20T17:46:35;49.13;;;23.38;;
47599;SDS011;33323;52.124;6.018;2022-11-20T17:49:02;48.85;;;24.55;;
47599;SDS011;33323;52.124;6.018;2022-11-20T17:51:30;51.10;;;26.08;;
47599;SDS011;33323;52.124;6.018;2022-11-20T17:54:00;48.78;;;24.20;;
47599;SDS011;33323;52.124;6.018;2022-11-20T17:56:33;50.88;;;24.92;;
47599;SDS011;33323;52.124;6.018;2022-11-20T17:59:19;48.00;;;23.83;;
47599;SDS011;33323;52.124;6.018;2022-11-20T18:01:46;51.10;;;23.98;;
47599;SDS011;33323;52.124;6.018;2022-11-20T18:04:14;53.08;;;25.58;;
47599;SDS011;33323;52.124;6.018;2022-11-20T18:06:42;49.35;;;23.77;;
47599;SDS011;33323;52.124;6.018;2022-11-20T18:09:11;51.25;;;25.70;;
47599;SDS011;33323;52.124;6.018;2022-11-20T18:11:39;52.40;;;24.73;;
47599;SDS011;33323;52.124;6.018;2022-11-20T18:14:13;52.17;;;24.98;;
47599;SDS011;33323;52.124;6.018;2022-11-20T18:16:55;51.25;;;24.42;;
47599;SDS011;33323;52.124;6.018;2022-11-20T18:19:30;52.15;;;25.30;;
47599;SDS011;33323;52.124;6.018;2022-11-20T18:22:06;59.33;;;25.63;;
47599;SDS011;33323;52.124;6.018;2022-11-20T18:24:34;48.63;;;25.17;;
47599;SDS011;33323;52.124;6.018;2022-11-20T18:27:02;56.22;;;26.63;;
47599;SDS011;33323;52.124;6.018;2022-11-20T18:29:31;59.80;;;27.98;;
47599;SDS011;33323;52.124;6.018;2022-11-20T18:31:59;47.15;;;24.52;;
47599;SDS011;33323;52.124;6.018;2022-11-20T18:34:26;58.63;;;25.60;;
47599;SDS011;33323;52.124;6.018;2022-11-20T18:36:53;55.60;;;25.65;;
47599;SDS011;33323;52.124;6.018;2022-11-20T18:39:44;56.42;;;25.08;;
47599;SDS011;33323;52.124;6.018;2022-11-20T18:42:12;53.78;;;25.52;;
47599;SDS011;33323;52.124;6.018;2022-11-20T18:45:00;56.40;;;24.15;;
47599;SDS011;33323;52.124;6.018;2022-11-20T18:47:30;50.33;;;25.27;;
47599;SDS011;33323;52.124;6.018;2022-11-20T18:50:03;58.47;;;25.48;;
47599;SDS011;33323;52.124;6.018;2022-11-20T18:52:33;62.67;;;26.80;;
47599;SDS011;33323;52.124;6.018;2022-11-20T18:55:06;57.22;;;25.92;;
47599;SDS011;33323;52.124;6.018;2022-11-20T18:57:34;57.30;;;25.90;;
47599;SDS011;33323;52.124;6.018;2022-11-20T19:00:02;55.05;;;26.80;;
47599;SDS011;33323;52.124;6.018;2022-11-20T19:02:35;58.88;;;25.20;;
47599;SDS011;33323;52.124;6.018;2022-11-20T19:05:08;53.28;;;26.95;;
47599;SDS011;33323;52.124;6.018;2022-11-20T19:07:39;53.22;;;25.83;;
47599;SDS011;33323;52.124;6.018;2022-11-20T19:10:07;52.78;;;25.35;;
47599;SDS011;33323;52.124;6.018;2022-11-20T19:15:49;58.90;;;25.50;;
47599;SDS011;33323;52.124;6.018;2022-11-20T19:18:16;66.63;;;27.85;;
47599;SDS011;33323;52.124;6.018;2022-11-20T19:20:43;60.75;;;26.42;;
47599;SDS011;33323;52.124;6.018;2022-11-20T19:23:10;55.00;;;27.90;;
47599;SDS011;33323;52.124;6.018;2022-11-20T19:25:38;55.20;;;27.05;;
47599;SDS011;33323;52.124;6.018;2022-11-20T19:28:05;60.67;;;28.00;;
47599;SDS011;33323;52.124;6.018;2022-11-20T19:30:32;60.50;;;28.30;;
47599;SDS011;33323;52.124;6.018;2022-11-20T19:32:59;55.13;;;26.55;;
47599;SDS011;33323;52.124;6.018;2022-11-20T19:35:26;59.53;;;28.45;;
47599;SDS011;33323;52.124;6.018;2022-11-20T19:37:53;54.67;;;26.75;;
47599;SDS011;33323;52.124;6.018;2022-11-20T19:40:20;50.97;;;25.60;;
47599;SDS011;33323;52.124;6.018;2022-11-20T19:42:47;54.95;;;26.17;;
47599;SDS011;33323;52.124;6.018;2022-11-20T19:45:14;57.22;;;26.85;;
47599;SDS011;33323;52.124;6.018;2022-11-20T19:47:41;59.83;;;27.08;;
47599;SDS011;33323;52.124;6.018;2022-11-20T19:50:28;62.83;;;30.70;;
47599;SDS011;33323;52.124;6.018;2022-11-20T19:52:56;58.10;;;27.70;;
47599;SDS011;33323;52.124;6.018;2022-11-20T19:55:24;57.60;;;26.30;;
47599;SDS011;33323;52.124;6.018;2022-11-20T19:57:52;58.25;;;28.17;;
47599;SDS011;33323;52.124;6.018;2022-11-20T20:00:19;57.53;;;27.77;;
47599;SDS011;33323;52.124;6.018;2022-11-20T20:02:57;61.63;;;26.95;;
47599;SDS011;33323;52.124;6.018;2022-11-20T20:05:24;57.33;;;26.48;;
47599;SDS011;33323;52.124;6.018;2022-11-20T20:07:51;59.65;;;27.95;;
47599;SDS011;33323;52.124;6.018;2022-11-20T20:10:18;53.95;;;26.83;;
47599;SDS011;33323;52.124;6.018;2022-11-20T20:12:45;61.05;;;28.73;;
47599;SDS011;33323;52.124;6.018;2022-11-20T20:15:12;59.45;;;27.92;;
47599;SDS011;33323;52.124;6.018;2022-11-20T20:17:39;55.03;;;26.88;;
47599;SDS011;33323;52.124;6.018;2022-11-20T20:20:06;55.50;;;26.85;;
47599;SDS011;33323;52.124;6.018;2022-11-20T20:22:33;57.33;;;27.85;;
47599;SDS011;33323;52.124;6.018;2022-11-20T20:25:00;56.08;;;28.30;;